EDDB/SXF METAR and TAF weather

Enter ICAO airport designator
Station Type Date Time Source
EDDB METAR 2018/12/10 23:50 UTC NOAA

EDDB 102350Z 29013KT 9999 BKN016 04/02 Q1009 BECMG 28015G25KT


Station Type Date Time Source
EDDB Decoded METAR 2018/12/10 23:50 UTC NOAA

Berlin-Schoenefeld, Germany (EDDB) 52-23N 013-31E 50M
Dec 10, 2018 - 06:50 PM EST / 2018.12.10 2350 UTC
Wind: from the WNW (290 degrees) at 15 MPH (13 KT):0
Visibility: greater than 7 mile(s):0
Sky conditions: mostly cloudy
Temperature: 39 F (4 C)
Dew Point: 35 F (2 C)
Relative Humidity: 86%
Pressure (altimeter): 29.80 in. Hg (1009 hPa)
ob: EDDB 102350Z 29013KT 9999 BKN016 04/02 Q1009 BECMG 28015G25KT
cycle: 0

Station Type Date Time Source
EDDB TAF 2018/12/10 18:27 UTC NOAA

TAF TAF EDDB 101700Z 1018/1118 27015G25KT 9999 BKN020
TEMPO 1018/1022 4500 -SHRASN BKN012CB
BECMG 1102/1105 BKN010
BECMG 1106/1109 30013KT
BECMG 1109/1112 SCT012 BKN015


Example: see airport list